sensor_id;sensor_type;location;lat;lon;timestamp;pressure;altitude;pressure_sealevel;temperature;humidity
7774;BME280;3931;42.260;23.116;2023-02-23T00:02:11;95364.72;;;13.26;56.67
7774;BME280;3931;42.260;23.116;2023-02-23T00:04:37;95367.00;;;12.96;56.95
7774;BME280;3931;42.260;23.116;2023-02-23T00:07:03;95371.00;;;12.95;57.76
7774;BME280;3931;42.260;23.116;2023-02-23T00:09:31;95374.06;;;13.10;57.60
7774;BME280;3931;42.260;23.116;2023-02-23T00:12:01;95361.28;;;13.79;55.12
7774;BME280;3931;42.260;23.116;2023-02-23T00:14:32;95367.50;;;13.83;56.28
7774;BME280;3931;42.260;23.116;2023-02-23T00:16:59;95363.19;;;14.01;55.89
7774;BME280;3931;42.260;23.116;2023-02-23T00:19:26;95362.84;;;13.80;55.75
7774;BME280;3931;42.260;23.116;2023-02-23T00:21:52;95364.25;;;13.76;56.26
7774;BME280;3931;42.260;23.116;2023-02-23T00:24:19;95363.34;;;14.06;54.64
7774;BME280;3931;42.260;23.116;2023-02-23T00:26:47;95364.66;;;14.32;53.49
7774;BME280;3931;42.260;23.116;2023-02-23T00:29:17;95374.31;;;13.92;53.14
7774;BME280;3931;42.260;23.116;2023-02-23T00:31:45;95379.53;;;13.32;53.99
7774;BME280;3931;42.260;23.116;2023-02-23T00:34:13;95375.31;;;13.18;55.71
7774;BME280;3931;42.260;23.116;2023-02-23T00:36:41;95370.69;;;13.64;54.22
7774;BME280;3931;42.260;23.116;2023-02-23T00:39:10;95373.63;;;13.21;54.29
7774;BME280;3931;42.260;23.116;2023-02-23T00:41:47;95376.72;;;12.92;56.55
7774;BME280;3931;42.260;23.116;2023-02-23T00:44:13;95370.19;;;12.86;56.40
7774;BME280;3931;42.260;23.116;2023-02-23T00:46:41;95369.44;;;12.64;56.79
7774;BME280;3931;42.260;23.116;2023-02-23T00:49:08;95366.59;;;12.55;57.13
7774;BME280;3931;42.260;23.116;2023-02-23T00:51:35;95369.22;;;12.36;57.87
7774;BME280;3931;42.260;23.116;2023-02-23T00:54:02;95362.31;;;12.41;56.94
7774;BME280;3931;42.260;23.116;2023-02-23T00:56:28;95372.59;;;12.31;58.58
7774;BME280;3931;42.260;23.116;2023-02-23T00:58:55;95365.44;;;12.95;55.24
7774;BME280;3931;42.260;23.116;2023-02-23T01:01:22;95368.38;;;12.92;55.14
7774;BME280;3931;42.260;23.116;2023-02-23T01:03:48;95369.06;;;12.74;55.56
7774;BME280;3931;42.260;23.116;2023-02-23T01:06:15;95365.38;;;12.56;56.93
7774;BME280;3931;42.260;23.116;2023-02-23T01:08:43;95371.81;;;13.27;54.95
7774;BME280;3931;42.260;23.116;2023-02-23T01:11:12;95369.09;;;13.45;53.60
7774;BME280;3931;42.260;23.116;2023-02-23T01:13:40;95364.53;;;13.69;53.28
7774;BME280;3931;42.260;23.116;2023-02-23T01:16:07;95367.91;;;12.93;54.33
7774;BME280;3931;42.260;23.116;2023-02-23T01:18:34;95374.84;;;12.67;55.71
7774;BME280;3931;42.260;23.116;2023-02-23T01:21:01;95366.22;;;12.96;53.73
7774;BME280;3931;42.260;23.116;2023-02-23T01:23:27;95364.88;;;13.00;54.42
7774;BME280;3931;42.260;23.116;2023-02-23T01:25:53;95373.28;;;12.88;54.25
7774;BME280;3931;42.260;23.116;2023-02-23T01:28:20;95367.06;;;12.84;55.59
7774;BME280;3931;42.260;23.116;2023-02-23T01:30:46;95368.56;;;13.28;54.13
7774;BME280;3931;42.260;23.116;2023-02-23T01:33:12;95371.13;;;13.13;53.92
7774;BME280;3931;42.260;23.116;2023-02-23T01:35:38;95371.84;;;13.36;53.48
7774;BME280;3931;42.260;23.116;2023-02-23T01:38:04;95366.09;;;13.21;52.72
7774;BME280;3931;42.260;23.116;2023-02-23T01:40:30;95366.09;;;13.21;53.87
7774;BME280;3931;42.260;23.116;2023-02-23T01:42:59;95372.78;;;12.80;55.06
7774;BME280;3931;42.260;23.116;2023-02-23T01:45:32;95362.84;;;13.23;53.84
7774;BME280;3931;42.260;23.116;2023-02-23T01:48:03;95361.28;;;12.26;56.85
7774;BME280;3931;42.260;23.116;2023-02-23T01:50:35;95358.78;;;12.19;57.15
7774;BME280;3931;42.260;23.116;2023-02-23T01:53:02;95362.19;;;12.66;55.35
7774;BME280;3931;42.260;23.116;2023-02-23T01:55:28;95362.88;;;12.14;57.46
7774;BME280;3931;42.260;23.116;2023-02-23T01:58:03;95357.00;;;12.25;58.11
7774;BME280;3931;42.260;23.116;2023-02-23T02:00:30;95359.69;;;12.37;58.48
7774;BME280;3931;42.260;23.116;2023-02-23T02:03:05;95353.47;;;12.77;56.77
7774;BME280;3931;42.260;23.116;2023-02-23T02:05:35;95355.28;;;13.01;55.39
7774;BME280;3931;42.260;23.116;2023-02-23T02:08:02;95355.56;;;12.20;57.67
7774;BME280;3931;42.260;23.116;2023-02-23T02:10:30;95355.97;;;12.31;57.71
7774;BME280;3931;42.260;23.116;2023-02-23T02:13:10;95351.53;;;12.00;59.80
7774;BME280;3931;42.260;23.116;2023-02-23T02:15:50;95358.41;;;12.29;59.00
7774;BME280;3931;42.260;23.116;2023-02-23T02:18:26;95363.81;;;12.11;60.22
7774;BME280;3931;42.260;23.116;2023-02-23T02:27:37;95355.00;;;11.91;61.08
7774;BME280;3931;42.260;23.116;2023-02-23T02:39:23;95361.75;;;12.46;56.72
7774;BME280;3931;42.260;23.116;2023-02-23T02:42:07;95367.91;;;11.60;58.40
7774;BME280;3931;42.260;23.116;2023-02-23T02:44:49;95356.28;;;11.52;59.99
7774;BME280;3931;42.260;23.116;2023-02-23T02:47:21;95355.97;;;11.50;60.57
7774;BME280;3931;42.260;23.116;2023-02-23T02:49:59;95353.50;;;11.52;60.00
7774;BME280;3931;42.260;23.116;2023-02-23T02:52:29;95357.84;;;11.53;60.66
7774;BME280;3931;42.260;23.116;2023-02-23T02:55:05;95351.94;;;11.64;59.19
7774;BME280;3931;42.260;23.116;2023-02-23T02:57:34;95347.19;;;12.33;58.02
7774;BME280;3931;42.260;23.116;2023-02-23T03:00:01;95347.84;;;12.68;56.86
7774;BME280;3931;42.260;23.116;2023-02-23T03:02:45;95348.69;;;12.77;55.57
7774;BME280;3931;42.260;23.116;2023-02-23T03:05:36;95339.34;;;12.62;55.28
7774;BME280;3931;42.260;23.116;2023-02-23T03:08:27;95349.16;;;12.11;57.70
7774;BME280;3931;42.260;23.116;2023-02-23T03:11:18;95343.66;;;11.51;59.45
7774;BME280;3931;42.260;23.116;2023-02-23T03:14:15;95344.31;;;11.43;59.79
7774;BME280;3931;42.260;23.116;2023-02-23T03:17:09;95345.44;;;11.58;60.32
7774;BME280;3931;42.260;23.116;2023-02-23T03:19:58;95349.09;;;12.02;57.88
7774;BME280;3931;42.260;23.116;2023-02-23T03:22:52;95348.19;;;12.05;57.11
7774;BME280;3931;42.260;23.116;2023-02-23T03:25:45;95358.78;;;12.19;56.19
7774;BME280;3931;42.260;23.116;2023-02-23T03:28:34;95355.47;;;11.77;57.86
7774;BME280;3931;42.260;23.116;2023-02-23T03:31:25;95358.09;;;11.93;56.13
7774;BME280;3931;42.260;23.116;2023-02-23T03:34:19;95357.56;;;11.86;56.43
7774;BME280;3931;42.260;23.116;2023-02-23T03:37:13;95363.59;;;11.72;56.42
7774;BME280;3931;42.260;23.116;2023-02-23T03:40:05;95370.56;;;11.63;56.14
7774;BME280;3931;42.260;23.116;2023-02-23T03:42:52;95366.81;;;11.70;56.46
7774;BME280;3931;42.260;23.116;2023-02-23T03:45:43;95367.91;;;11.73;55.56
7774;BME280;3931;42.260;23.116;2023-02-23T03:48:30;95372.69;;;12.06;55.52
7774;BME280;3931;42.260;23.116;2023-02-23T03:51:16;95377.59;;;12.02;55.51
7774;BME280;3931;42.260;23.116;2023-02-23T03:54:06;95376.25;;;12.07;56.07
7774;BME280;3931;42.260;23.116;2023-02-23T03:56:55;95384.09;;;11.61;57.27
7774;BME280;3931;42.260;23.116;2023-02-23T03:59:46;95382.56;;;11.10;60.89
7774;BME280;3931;42.260;23.116;2023-02-23T04:02:35;95382.19;;;11.58;58.63
7774;BME280;3931;42.260;23.116;2023-02-23T04:05:21;95387.34;;;12.07;56.95
7774;BME280;3931;42.260;23.116;2023-02-23T04:08:08;95391.09;;;12.13;55.78
7774;BME280;3931;42.260;23.116;2023-02-23T04:10:59;95400.19;;;12.01;57.31
7774;BME280;3931;42.260;23.116;2023-02-23T04:13:48;95393.44;;;12.02;57.06
7774;BME280;3931;42.260;23.116;2023-02-23T04:16:16;95391.50;;;11.52;59.57
7774;BME280;3931;42.260;23.116;2023-02-23T04:18:42;95392.63;;;10.91;63.14
7774;BME280;3931;42.260;23.116;2023-02-23T04:21:09;95392.75;;;11.26;62.15
7774;BME280;3931;42.260;23.116;2023-02-23T04:23:36;95393.31;;;11.08;63.88
7774;BME280;3931;42.260;23.116;2023-02-23T04:26:05;95388.88;;;11.74;61.04
7774;BME280;3931;42.260;23.116;2023-02-23T04:28:31;95391.75;;;11.83;59.59
7774;BME280;3931;42.260;23.116;2023-02-23T04:30:57;95380.00;;;11.53;61.30
7774;BME280;3931;42.260;23.116;2023-02-23T04:33:23;95381.66;;;10.88;63.97
7774;BME280;3931;42.260;23.116;2023-02-23T04:35:51;95385.53;;;10.78;65.21
7774;BME280;3931;42.260;23.116;2023-02-23T04:38:18;95391.00;;;11.07;63.11
7774;BME280;3931;42.260;23.116;2023-02-23T04:40:44;95390.09;;;10.84;63.36
7774;BME280;3931;42.260;23.116;2023-02-23T04:43:11;95395.84;;;10.90;64.75
7774;BME280;3931;42.260;23.116;2023-02-23T04:45:38;95392.84;;;10.84;64.85
7774;BME280;3931;42.260;23.116;2023-02-23T04:48:04;95390.84;;;10.85;64.42
7774;BME280;3931;42.260;23.116;2023-02-23T04:50:30;95378.38;;;11.31;61.95
7774;BME280;3931;42.260;23.116;2023-02-23T04:52:57;95387.28;;;10.72;63.35
7774;BME280;3931;42.260;23.116;2023-02-23T04:55:24;95390.41;;;10.45;65.59
7774;BME280;3931;42.260;23.116;2023-02-23T04:57:52;95385.88;;;10.39;64.30
7774;BME280;3931;42.260;23.116;2023-02-23T05:00:22;95384.94;;;10.29;65.87
7774;BME280;3931;42.260;23.116;2023-02-23T05:02:48;95390.63;;;10.38;64.61
7774;BME280;3931;42.260;23.116;2023-02-23T05:05:14;95395.63;;;10.14;67.32
7774;BME280;3931;42.260;23.116;2023-02-23T05:07:40;95393.00;;;10.23;67.59
7774;BME280;3931;42.260;23.116;2023-02-23T05:10:08;95398.09;;;9.32;71.35
7774;BME280;3931;42.260;23.116;2023-02-23T05:12:34;95399.63;;;9.97;69.19
7774;BME280;3931;42.260;23.116;2023-02-23T05:15:00;95401.88;;;9.38;71.67
7774;BME280;3931;42.260;23.116;2023-02-23T05:17:26;95393.63;;;9.54;71.95
7774;BME280;3931;42.260;23.116;2023-02-23T05:19:52;95406.50;;;10.05;70.23
7774;BME280;3931;42.260;23.116;2023-02-23T05:22:18;95401.00;;;10.34;69.38
7774;BME280;3931;42.260;23.116;2023-02-23T05:24:44;95403.22;;;10.80;65.71
7774;BME280;3931;42.260;23.116;2023-02-23T05:27:12;95405.97;;;10.55;65.86
7774;BME280;3931;42.260;23.116;2023-02-23T05:29:38;95409.41;;;10.72;67.10
7774;BME280;3931;42.260;23.116;2023-02-23T05:32:05;95408.91;;;11.52;62.76
7774;BME280;3931;42.260;23.116;2023-02-23T05:34:31;95415.47;;;11.33;62.96
7774;BME280;3931;42.260;23.116;2023-02-23T05:36:57;95425.63;;;10.86;66.48
7774;BME280;3931;42.260;23.116;2023-02-23T05:39:23;95422.25;;;11.45;63.66
7774;BME280;3931;42.260;23.116;2023-02-23T05:41:49;95418.34;;;11.67;61.65
7774;BME280;3931;42.260;23.116;2023-02-23T05:44:16;95431.63;;;11.35;62.47
7774;BME280;3931;42.260;23.116;2023-02-23T05:46:44;95430.44;;;11.74;61.73
7774;BME280;3931;42.260;23.116;2023-02-23T05:49:10;95439.28;;;11.31;62.57
7774;BME280;3931;42.260;23.116;2023-02-23T05:51:36;95441.38;;;11.52;63.21
7774;BME280;3931;42.260;23.116;2023-02-23T05:54:04;95440.38;;;11.84;60.39
7774;BME280;3931;42.260;23.116;2023-02-23T05:56:30;95444.59;;;11.88;61.43
7774;BME280;3931;42.260;23.116;2023-02-23T05:58:56;95447.44;;;12.44;60.26
7774;BME280;3931;42.260;23.116;2023-02-23T06:01:24;95450.78;;;14.72;52.69
7774;BME280;3931;42.260;23.116;2023-02-23T06:03:51;95449.72;;;16.46;47.81
7774;BME280;3931;42.260;23.116;2023-02-23T06:06:17;95457.38;;;18.15;43.62
7774;BME280;3931;42.260;23.116;2023-02-23T06:08:44;95457.97;;;17.70;43.49
7774;BME280;3931;42.260;23.116;2023-02-23T06:11:10;95464.88;;;17.89;43.28
7774;BME280;3931;42.260;23.116;2023-02-23T06:13:36;95466.88;;;18.38;42.26
7774;BME280;3931;42.260;23.116;2023-02-23T06:16:03;95467.72;;;18.09;42.18
7774;BME280;3931;42.260;23.116;2023-02-23T06:18:30;95460.13;;;18.84;41.04
7774;BME280;3931;42.260;23.116;2023-02-23T06:20:58;95460.34;;;19.78;39.26
7774;BME280;3931;42.260;23.116;2023-02-23T06:23:25;95462.44;;;20.20;38.65
7774;BME280;3931;42.260;23.116;2023-02-23T06:25:51;95456.66;;;20.71;37.92
7774;BME280;3931;42.260;23.116;2023-02-23T06:28:17;95459.56;;;22.08;36.33
7774;BME280;3931;42.260;23.116;2023-02-23T06:30:43;95461.63;;;22.13;35.61
7774;BME280;3931;42.260;23.116;2023-02-23T06:33:11;95466.97;;;21.77;35.45
7774;BME280;3931;42.260;23.116;2023-02-23T06:35:38;95467.19;;;21.63;35.05
7774;BME280;3931;42.260;23.116;2023-02-23T06:38:04;95465.38;;;21.43;35.87
7774;BME280;3931;42.260;23.116;2023-02-23T06:40:30;95471.88;;;22.05;34.96
7774;BME280;3931;42.260;23.116;2023-02-23T06:42:57;95469.03;;;22.10;35.08
7774;BME280;3931;42.260;23.116;2023-02-23T06:45:24;95469.53;;;21.75;35.64
7774;BME280;3931;42.260;23.116;2023-02-23T06:47:50;95465.78;;;21.09;35.83
7774;BME280;3931;42.260;23.116;2023-02-23T06:50:17;95470.56;;;20.97;36.64
7774;BME280;3931;42.260;23.116;2023-02-23T06:52:44;95470.06;;;20.93;36.46
7774;BME280;3931;42.260;23.116;2023-02-23T06:55:10;95471.06;;;20.42;37.58
7774;BME280;3931;42.260;23.116;2023-02-23T06:57:37;95466.41;;;20.33;37.87
7774;BME280;3931;42.260;23.116;2023-02-23T07:00:04;95470.88;;;19.83;38.79
7774;BME280;3931;42.260;23.116;2023-02-23T07:02:30;95464.16;;;20.06;38.31
7774;BME280;3931;42.260;23.116;2023-02-23T07:04:56;95466.91;;;18.98;39.15
7774;BME280;3931;42.260;23.116;2023-02-23T07:07:23;95460.56;;;19.23;39.66
7774;BME280;3931;42.260;23.116;2023-02-23T07:09:49;95459.25;;;19.19;40.44
7774;BME280;3931;42.260;23.116;2023-02-23T07:12:15;95458.91;;;19.11;40.29
7774;BME280;3931;42.260;23.116;2023-02-23T07:14:41;95458.84;;;19.31;39.78
7774;BME280;3931;42.260;23.116;2023-02-23T07:17:07;95462.84;;;19.19;40.22
7774;BME280;3931;42.260;23.116;2023-02-23T07:19:33;95458.63;;;19.09;40.67
7774;BME280;3931;42.260;23.116;2023-02-23T07:22:00;95460.75;;;18.74;41.42
7774;BME280;3931;42.260;23.116;2023-02-23T07:24:26;95455.72;;;18.78;41.37
7774;BME280;3931;42.260;23.116;2023-02-23T07:26:53;95457.53;;;17.91;42.80
7774;BME280;3931;42.260;23.116;2023-02-23T07:29:19;95460.81;;;18.59;42.13
7774;BME280;3931;42.260;23.116;2023-02-23T07:31:45;95454.41;;;18.04;42.20
7774;BME280;3931;42.260;23.116;2023-02-23T07:34:14;95457.06;;;17.64;43.32
7774;BME280;3931;42.260;23.116;2023-02-23T07:36:40;95449.88;;;18.81;41.65
7774;BME280;3931;42.260;23.116;2023-02-23T07:39:07;95448.13;;;18.09;42.11
7774;BME280;3931;42.260;23.116;2023-02-23T07:41:33;95456.53;;;18.09;43.44
7774;BME280;3931;42.260;23.116;2023-02-23T07:43:59;95442.88;;;19.37;41.12
7774;BME280;3931;42.260;23.116;2023-02-23T07:46:25;95451.72;;;18.84;41.99
7774;BME280;3931;42.260;23.116;2023-02-23T07:48:52;95444.38;;;17.97;43.47
7774;BME280;3931;42.260;23.116;2023-02-23T07:51:18;95438.59;;;19.22;42.35
7774;BME280;3931;42.260;23.116;2023-02-23T07:53:44;95431.72;;;19.74;40.53
7774;BME280;3931;42.260;23.116;2023-02-23T07:56:11;95436.13;;;19.49;41.27
7774;BME280;3931;42.260;23.116;2023-02-23T07:58:38;95429.19;;;19.76;40.70
7774;BME280;3931;42.260;23.116;2023-02-23T08:01:06;95434.53;;;19.74;41.37
7774;BME280;3931;42.260;23.116;2023-02-23T08:03:32;95431.16;;;20.32;40.32
7774;BME280;3931;42.260;23.116;2023-02-23T08:05:58;95434.09;;;20.60;39.68
7774;BME280;3931;42.260;23.116;2023-02-23T08:08:24;95429.25;;;20.55;40.11
7774;BME280;3931;42.260;23.116;2023-02-23T08:10:52;95429.28;;;20.66;39.96
7774;BME280;3931;42.260;23.116;2023-02-23T08:13:24;95421.72;;;20.94;38.88
7774;BME280;3931;42.260;23.116;2023-02-23T08:15:50;95419.03;;;21.22;38.84
7774;BME280;3931;42.260;23.116;2023-02-23T08:18:16;95417.03;;;21.72;38.05
7774;BME280;3931;42.260;23.116;2023-02-23T08:20:42;95415.88;;;20.45;39.41
7774;BME280;3931;42.260;23.116;2023-02-23T08:25:35;95419.19;;;22.85;37.11
7774;BME280;3931;42.260;23.116;2023-02-23T08:28:02;95409.84;;;21.55;37.27
7774;BME280;3931;42.260;23.116;2023-02-23T08:30:32;95409.84;;;22.27;37.44
7774;BME280;3931;42.260;23.116;2023-02-23T08:32:58;95412.91;;;21.35;38.34
7774;BME280;3931;42.260;23.116;2023-02-23T08:35:26;95412.97;;;21.96;38.00
7774;BME280;3931;42.260;23.116;2023-02-23T08:37:52;95410.09;;;22.23;38.15
7774;BME280;3931;42.260;23.116;2023-02-23T08:40:19;95411.81;;;22.65;37.16
7774;BME280;3931;42.260;23.116;2023-02-23T08:42:45;95412.69;;;23.01;36.56
7774;BME280;3931;42.260;23.116;2023-02-23T08:45:13;95408.78;;;23.56;35.21
7774;BME280;3931;42.260;23.116;2023-02-23T08:47:39;95408.97;;;23.99;34.69
7774;BME280;3931;42.260;23.116;2023-02-23T08:50:05;95406.06;;;24.10;34.72
7774;BME280;3931;42.260;23.116;2023-02-23T08:52:32;95413.69;;;24.44;34.07
7774;BME280;3931;42.260;23.116;2023-02-23T08:54:58;95419.25;;;22.57;36.16
7774;BME280;3931;42.260;23.116;2023-02-23T08:57:24;95413.75;;;22.92;36.23
7774;BME280;3931;42.260;23.116;2023-02-23T08:59:51;95416.31;;;22.96;36.24
7774;BME280;3931;42.260;23.116;2023-02-23T09:02:17;95406.56;;;23.78;35.22
7774;BME280;3931;42.260;23.116;2023-02-23T09:04:43;95414.38;;;23.67;34.96
7774;BME280;3931;42.260;23.116;2023-02-23T09:07:13;95407.31;;;22.18;36.70
7774;BME280;3931;42.260;23.116;2023-02-23T09:09:40;95402.94;;;23.48;35.88
7774;BME280;3931;42.260;23.116;2023-02-23T09:12:06;95396.66;;;24.74;34.30
7774;BME280;3931;42.260;23.116;2023-02-23T09:14:32;95399.84;;;23.52;34.61
7774;BME280;3931;42.260;23.116;2023-02-23T09:17:00;95401.06;;;23.91;34.96
7774;BME280;3931;42.260;23.116;2023-02-23T09:19:27;95397.59;;;23.39;35.16
7774;BME280;3931;42.260;23.116;2023-02-23T09:21:53;95392.72;;;24.05;34.95
7774;BME280;3931;42.260;23.116;2023-02-23T09:24:19;95391.25;;;24.52;34.28
7774;BME280;3931;42.260;23.116;2023-02-23T09:26:46;95388.69;;;23.65;34.65
7774;BME280;3931;42.260;23.116;2023-02-23T09:29:12;95389.97;;;23.64;34.79
7774;BME280;3931;42.260;23.116;2023-02-23T09:31:38;95389.00;;;24.21;34.50
7774;BME280;3931;42.260;23.116;2023-02-23T09:34:04;95381.16;;;23.43;34.89
7774;BME280;3931;42.260;23.116;2023-02-23T09:36:33;95384.31;;;25.14;33.42
7774;BME280;3931;42.260;23.116;2023-02-23T09:38:59;95387.78;;;25.45;33.34
7774;BME280;3931;42.260;23.116;2023-02-23T09:42:03;95380.25;;;25.97;32.21
7774;BME280;3931;42.260;23.116;2023-02-23T09:44:48;95380.88;;;25.90;32.29
7774;BME280;3931;42.260;23.116;2023-02-23T09:47:33;95377.28;;;25.02;32.21
7774;BME280;3931;42.260;23.116;2023-02-23T09:50:13;95380.47;;;24.50;32.86
7774;BME280;3931;42.260;23.116;2023-02-23T09:52:44;95370.81;;;25.89;32.47
7774;BME280;3931;42.260;23.116;2023-02-23T09:55:13;95380.59;;;25.06;31.93
7774;BME280;3931;42.260;23.116;2023-02-23T09:57:43;95373.72;;;24.53;32.94
7774;BME280;3931;42.260;23.116;2023-02-23T10:00:16;95361.00;;;24.66;33.41
7774;BME280;3931;42.260;23.116;2023-02-23T10:03:09;95365.03;;;24.94;33.00
7774;BME280;3931;42.260;23.116;2023-02-23T10:05:39;95371.59;;;26.35;32.12
7774;BME280;3931;42.260;23.116;2023-02-23T10:08:17;95366.69;;;25.59;31.56
7774;BME280;3931;42.260;23.116;2023-02-23T10:10:47;95364.50;;;25.14;32.39
7774;BME280;3931;42.260;23.116;2023-02-23T10:13:20;95361.72;;;24.47;33.37
7774;BME280;3931;42.260;23.116;2023-02-23T10:15:55;95359.69;;;25.28;32.68
7774;BME280;3931;42.260;23.116;2023-02-23T10:18:27;95356.00;;;25.14;33.54
7774;BME280;3931;42.260;23.116;2023-02-23T10:20:59;95343.75;;;26.99;31.83
7774;BME280;3931;42.260;23.116;2023-02-23T10:23:31;95353.09;;;27.33;30.84
7774;BME280;3931;42.260;23.116;2023-02-23T10:25:59;95348.56;;;26.38;31.01
7774;BME280;3931;42.260;23.116;2023-02-23T10:28:32;95338.66;;;26.71;31.31
7774;BME280;3931;42.260;23.116;2023-02-23T10:30:59;95332.69;;;25.40;31.63
7774;BME280;3931;42.260;23.116;2023-02-23T10:33:31;95335.63;;;25.53;31.87
7774;BME280;3931;42.260;23.116;2023-02-23T10:36:07;95326.91;;;25.14;31.32
7774;BME280;3931;42.260;23.116;2023-02-23T10:38:35;95324.75;;;26.02;31.12
7774;BME280;3931;42.260;23.116;2023-02-23T10:41:01;95318.25;;;25.44;30.89
7774;BME280;3931;42.260;23.116;2023-02-23T10:43:29;95321.78;;;25.94;30.96
7774;BME280;3931;42.260;23.116;2023-02-23T10:45:55;95315.97;;;26.58;31.06
7774;BME280;3931;42.260;23.116;2023-02-23T10:48:23;95312.91;;;26.82;30.48
7774;BME280;3931;42.260;23.116;2023-02-23T10:50:53;95314.66;;;26.20;30.74
7774;BME280;3931;42.260;23.116;2023-02-23T10:53:22;95307.81;;;27.01;30.54
7774;BME280;3931;42.260;23.116;2023-02-23T10:56:00;95311.63;;;27.04;29.74
7774;BME280;3931;42.260;23.116;2023-02-23T10:58:27;95303.69;;;27.02;29.59
7774;BME280;3931;42.260;23.116;2023-02-23T11:00:56;95292.28;;;27.15;29.55
7774;BME280;3931;42.260;23.116;2023-02-23T11:03:29;95294.16;;;25.69;30.83
7774;BME280;3931;42.260;23.116;2023-02-23T11:05:57;95282.66;;;26.71;30.65
7774;BME280;3931;42.260;23.116;2023-02-23T11:08:26;95285.31;;;27.03;30.39
7774;BME280;3931;42.260;23.116;2023-02-23T11:11:00;95277.44;;;27.43;30.23
7774;BME280;3931;42.260;23.116;2023-02-23T11:13:28;95265.44;;;28.27;29.53
7774;BME280;3931;42.260;23.116;2023-02-23T11:15:59;95274.47;;;26.55;30.31
7774;BME280;3931;42.260;23.116;2023-02-23T11:18:26;95266.19;;;27.04;30.36
7774;BME280;3931;42.260;23.116;2023-02-23T11:20:53;95260.31;;;27.02;30.07
7774;BME280;3931;42.260;23.116;2023-02-23T11:23:22;95258.16;;;27.70;30.09
7774;BME280;3931;42.260;23.116;2023-02-23T11:25:55;95255.47;;;27.10;30.09
7774;BME280;3931;42.260;23.116;2023-02-23T11:28:28;95245.84;;;27.13;30.78
7774;BME280;3931;42.260;23.116;2023-02-23T11:30:56;95245.56;;;27.86;29.77
7774;BME280;3931;42.260;23.116;2023-02-23T11:33:26;95238.88;;;27.55;30.30
7774;BME280;3931;42.260;23.116;2023-02-23T11:35:59;95244.28;;;27.66;29.49
7774;BME280;3931;42.260;23.116;2023-02-23T11:38:37;95245.56;;;27.86;29.92
7774;BME280;3931;42.260;23.116;2023-02-23T11:41:05;95237.44;;;27.41;29.88
7774;BME280;3931;42.260;23.116;2023-02-23T11:43:32;95232.44;;;27.34;30.20
7774;BME280;3931;42.260;23.116;2023-02-23T11:45:59;95235.56;;;28.13;29.56
7774;BME280;3931;42.260;23.116;2023-02-23T11:48:30;95224.69;;;27.83;29.23
7774;BME280;3931;42.260;23.116;2023-02-23T11:50:58;95211.91;;;27.97;29.11
7774;BME280;3931;42.260;23.116;2023-02-23T11:53:28;95222.22;;;27.80;28.98
7774;BME280;3931;42.260;23.116;2023-02-23T11:55:58;95225.13;;;27.38;29.29
7774;BME280;3931;42.260;23.116;2023-02-23T11:58:36;95219.00;;;27.01;29.86
7774;BME280;3931;42.260;23.116;2023-02-23T12:01:05;95218.31;;;27.41;29.50
7774;BME280;3931;42.260;23.116;2023-02-23T12:03:39;95210.53;;;27.63;29.44
7774;BME280;3931;42.260;23.116;2023-02-23T12:06:09;95206.25;;;27.77;29.22
7774;BME280;3931;42.260;23.116;2023-02-23T12:08:39;95208.97;;;28.10;28.93
7774;BME280;3931;42.260;23.116;2023-02-23T12:11:12;95202.22;;;27.65;29.25
7774;BME280;3931;42.260;23.116;2023-02-23T12:13:43;95203.94;;;28.24;28.76
7774;BME280;3931;42.260;23.116;2023-02-23T12:16:14;95202.44;;;28.59;28.95
7774;BME280;3931;42.260;23.116;2023-02-23T12:18:46;95193.50;;;27.70;29.07
7774;BME280;3931;42.260;23.116;2023-02-23T12:21:22;95190.53;;;28.75;28.33
7774;BME280;3931;42.260;23.116;2023-02-23T12:23:52;95190.22;;;28.07;28.84
7774;BME280;3931;42.260;23.116;2023-02-23T12:26:22;95193.13;;;27.45;28.96
7774;BME280;3931;42.260;23.116;2023-02-23T12:28:51;95184.31;;;28.05;29.31
7774;BME280;3931;42.260;23.116;2023-02-23T12:31:25;95179.53;;;28.36;28.35
7774;BME280;3931;42.260;23.116;2023-02-23T12:33:56;95180.78;;;28.20;28.80
7774;BME280;3931;42.260;23.116;2023-02-23T12:36:27;95183.16;;;28.01;29.17
7774;BME280;3931;42.260;23.116;2023-02-23T12:38:59;95176.59;;;28.57;28.34
7774;BME280;3931;42.260;23.116;2023-02-23T12:41:34;95167.00;;;28.82;28.29
7774;BME280;3931;42.260;23.116;2023-02-23T12:44:04;95172.47;;;27.24;29.23
7774;BME280;3931;42.260;23.116;2023-02-23T12:46:40;95174.97;;;28.76;28.20
7774;BME280;3931;42.260;23.116;2023-02-23T12:49:19;95171.59;;;29.01;28.09
7774;BME280;3931;42.260;23.116;2023-02-23T12:51:49;95168.66;;;27.91;28.53
7774;BME280;3931;42.260;23.116;2023-02-23T12:54:18;95168.88;;;27.44;29.71
7774;BME280;3931;42.260;23.116;2023-02-23T12:56:58;95159.47;;;27.50;29.67
7774;BME280;3931;42.260;23.116;2023-02-23T12:59:41;95169.72;;;26.44;30.15
7774;BME280;3931;42.260;23.116;2023-02-23T13:02:15;95159.06;;;28.02;29.46
7774;BME280;3931;42.260;23.116;2023-02-23T13:05:00;95157.28;;;28.70;28.04
7774;BME280;3931;42.260;23.116;2023-02-23T13:07:34;95153.50;;;27.19;29.07
7774;BME280;3931;42.260;23.116;2023-02-23T13:10:13;95151.56;;;27.63;29.92
7774;BME280;3931;42.260;23.116;2023-02-23T13:12:49;95148.19;;;27.65;29.51
7774;BME280;3931;42.260;23.116;2023-02-23T13:15:22;95148.84;;;26.88;29.46
7774;BME280;3931;42.260;23.116;2023-02-23T13:17:56;95156.47;;;26.93;30.00
7774;BME280;3931;42.260;23.116;2023-02-23T13:20:29;95144.25;;;26.85;30.10
7774;BME280;3931;42.260;23.116;2023-02-23T13:23:06;95151.88;;;26.56;30.06
7774;BME280;3931;42.260;23.116;2023-02-23T13:25:41;95143.31;;;26.69;30.33
7774;BME280;3931;42.260;23.116;2023-02-23T13:28:16;95146.88;;;26.83;30.14
7774;BME280;3931;42.260;23.116;2023-02-23T13:30:44;95142.28;;;26.59;29.92
7774;BME280;3931;42.260;23.116;2023-02-23T13:33:24;95148.94;;;26.02;30.54
7774;BME280;3931;42.260;23.116;2023-02-23T13:35:52;95145.31;;;26.28;30.17
7774;BME280;3931;42.260;23.116;2023-02-23T13:38:24;95132.41;;;26.94;30.43
7774;BME280;3931;42.260;23.116;2023-02-23T13:41:00;95150.44;;;26.97;29.90
7774;BME280;3931;42.260;23.116;2023-02-23T13:43:34;95141.06;;;27.51;28.97
7774;BME280;3931;42.260;23.116;2023-02-23T13:46:11;95138.38;;;27.04;28.87
7774;BME280;3931;42.260;23.116;2023-02-23T13:48:45;95139.75;;;27.31;29.58